Green Valley, California
Current Conditions -  °F | °C
As of 1:51 PM on Sunday 23 Nov 2014 (Local Time) from KVNY Reporting Station
Clear Clear  
Wind Chill: 75°   Ceiling: Unl
Heat Index: 75°   Visibility: 10mi
Dew Point:   Wind: 22mph
Humidity: 8%   Direction: 10°N
Pressure: 30.11"   Gusts: 28mph
Location:  34.446°N, 118.517°W
Report Text: KVNY 232151Z 01019G24KT 10SM CLR 24/M13 A3011 RMK AO2 PK WND 03032/2055 SLP188 T02391128
Loading
Personal Weather Stations






























Interactive Weather Map New forecast layout! Learn more

10-Day Weather Forecast

Advertisements
Track Severe Weather on mobile